Flight Track Log - Related Links

Times and Time Zones

All times are in EDT time to prevent confusion due to time zone crossing. See the KAP17 flight status page for this flight to view local times or setup timezone preferences in your user account.

Time Position Orientation Groundspeed Altitude Reporting Facility
EDT Latitude Longitude Course Direction KTS MPH feet Rate Location/Type
Thu 10:18:27 AM 43.5694 -72.2625 152° Southeast 155 178 4,500  Level Boston Center
Thu 10:19:27 AM 43.5672 -72.2136 94° East 137 158 5,100 450 Climbing Boston Center
Thu 10:20:27 AM 43.5608 -72.1708 102° East 137 158 5,400 450 Climbing Boston Center
Thu 10:21:27 AM 43.5544 -72.1050 98° East 137 158 6,000 550 Climbing Boston Center
Thu 10:22:27 AM 43.5439 -72.0506 105° East 142 163 6,500 450 Climbing Boston Center
Thu 10:23:27 AM 43.5353 -72.0106 107° East 142 163 6,900 300 Climbing Boston Center
Thu 10:24:27 AM 43.4978 -71.9622 137° Southeast 142 163 7,100 100 Climbing Boston Center
Thu 10:25:27 AM 43.4683 -71.9222 135° Southeast 147 169 7,100  Level Boston Center
Thu 10:26:27 AM 43.4306 -71.8742 137° Southeast 154 177 7,100  Level Boston Center
Thu 10:27:27 AM 43.4011 -71.8314 133° Southeast 159 183 7,100  Level Boston Center
Thu 10:28:27 AM 43.3717 -71.7889 134° Southeast 159 183 7,100  Level Boston Center
Thu 10:29:27 AM 43.3403 -71.7492 137° Southeast 154 177 7,100  Level Boston Center
Thu 10:30:27 AM 43.3089 -71.7125 140° Southeast 154 177 7,100  Level Boston Center
Thu 10:31:27 AM 43.2753 -71.6786 144° Southeast 154 177 7,100  Level Boston Center
Thu 10:32:27 AM 43.2417 -71.6392 139° Southeast 154 177 7,100  Level Boston Center
Thu 10:33:01 AM 43.2333 -71.6167 117° Southeast 154 177 7,100  Level KA90
Thu 10:33:53 AM 43.2000 -71.5833 144° Southeast 156 180 7,100 -51 Level KA90
Thu 10:34:59 AM 43.1500 -71.5500 154° Southeast 158 182 7,000 -47 Descending KA90
Thu 10:36:00 AM 43.1167 -71.5000 132° Southeast 162 186 7,000  Level KA90
Thu 10:37:01 AM 43.0833 -71.4667 144° Southeast 161 185 7,000  Level KA90
Thu 10:38:01 AM 43.0500 -71.4333 144° Southeast 158 182 7,000  Level KA90
Thu 10:38:58 AM 43.0167 -71.3833 132° Southeast 158 182 7,000 -153 Level KA90
Thu 10:39:59 AM 42.9833 -71.3500 144° Southeast 168 193 6,700 -393 Descending KA90
Thu 10:41:00 AM 42.9500 -71.3167 144° Southeast 175 201 6,200 -300 Descending KA90
Thu 10:41:59 AM 42.9000 -71.2833 154° Southeast 166 191 6,100 -53 Descending KA90
Thu 10:42:53 AM 42.8667 -71.2667 160° South 161 185 6,100  Level KA90
Thu 10:43:59 AM 42.8167 -71.2333 154° Southeast 157 181 6,100 -142 Level KA90
Thu 10:45:00 AM 42.7833 -71.2167 160° South 157 181 5,800 -397 Descending KA90
Thu 10:46:00 AM 42.7333 -71.2000 166° South 170 196 5,300 -347 Descending KA90
Thu 10:47:01 AM 42.7000 -71.1667 144° Southeast 170 196 5,100 -149 Descending KA90
Thu 10:48:01 AM 42.6500 -71.1500 166° South 161 185 5,000 -48 Descending KA90
Thu 10:49:07 AM 42.6000 -71.1333 166° South 156 180 5,000  Level KA90
Thu 10:50:05 AM 42.5667 -71.1167 160° South 150 173 5,000 54 Level KA90
Thu 10:50:58 AM 42.5333 -71.1167 180° South 153 176 5,100 52 Climbing KA90
Thu 10:52:01 AM 42.4833 -71.1000 166° South 154 177 5,100  Level KA90
Thu 10:52:59 AM 42.4500 -71.1167 200° South 157 181 5,100 -50 Level KA90
Thu 10:54:01 AM 42.4000 -71.1333 194° South 154 177 5,000 -197 Descending KA90
Thu 10:55:01 AM 42.3667 -71.1500 200° South 156 180 4,700 -390 Descending KA90
Thu 10:56:04 AM 42.3167 -71.1833 206° Southwest 174 200 4,200 -286 Descending KA90
Thu 10:57:07 AM 42.2667 -71.2000 194° South 169 194 4,100 -49 Descending KA90
Thu 10:58:07 AM 42.2333 -71.2167 200° South 161 185 4,100 -50 Level KA90
Thu 10:59:07 AM 42.1833 -71.2167 180° South 155 178 4,000 -99 Descending KA90
Thu 11:00:08 AM 42.1500 -71.1833 143° Southeast 154 177 3,900 -300 Descending KA90
Thu 11:01:07 AM 42.1667 -71.1333 66° East 175 201 3,400 -432 Descending KA90
Thu 11:01:59 AM 42.2000 -71.0833 48° Northeast 176 203 3,100 -474 Descending KA90
Thu 11:03:01 AM 42.2500 -71.0667 14° North 176 203 2,500 -738 Descending KA90
Thu 11:04:01 AM 42.3000 -71.0333 26° Northeast 167 192 1,600 -831 Descending KA90
Thu 11:05:11 AM 42.3333 -71.0167 20° North 126 145 700 -771 Descending KA90
Thu 11:07:00 AM 42.3500 -71.0000 North  Level FlightAware Approximate
Thu 11:14:00 AM 42.3630 -71.0064 North  Level Estimated

Login

Don't have an account? Register now (free) for customized features, flight alerts, and more!